Nearby METAR Reports

 

EGPN - Dundee/Riverside, United Kingdom
Distance from station: SSE 10km
Updated: 11/05/2021 20:50
Few Clouds
Few Clouds
 Wind from E
Wind: E 9 mph , 15 km/h
Temperature: 11°C
Dew Point: 8°C
Humidity: 82%
Barometer: 1007 hPa
Clouds: Few Clouds
Visibility: 6 miles , 10 km
Cloud details: Few Clouds 1372 m
2021/05/11 19:50 EGPN 111950Z 09008KT 9999 FEW045 11/08 Q1007
EGQL - Leuchars Raf, United Kingdom
Distance from station: SE 21km
Updated: 11/05/2021 20:50
Clear
Clear
 Wind from E
Wind: E 12 mph , 19 km/h
Temperature: 10°C
Wind Chill: 7°C
Dew Point: 8°C
Humidity: 88%
Barometer: 1007 hPa
Summary: Clear
Visibility: greater than 7 miles , 10 km
2021/05/11 19:50 EGQL 111950Z 10010KT CAVOK 10/08 Q1007 BLU
 
EGPH - Edinburgh Airpor, United Kingdom
Distance from station: SSW 67km
Updated: 11/05/2021 20:20
Light rain, Partly cloudy
Light rain, Partly cloudy
 Wind from WSW
Wind: WSW 7 mph , 11 km/h
Temperature: 11°C
Dew Point: 8°C
Humidity: 82%
Barometer: 1006 hPa
Summary: Light rain
Clouds: Partly cloudy
Visibility: 6 miles , 10 km
2021/05/11 19:20 EGPH 111920Z 24006KT 9999 -RA NSC 11/08 Q1006
EGPD - Aberdeen/Dyce, United Kingdom
Distance from station: NE 91km
Updated: 11/05/2021 20:50
Clear
Clear
 Wind from S
Wind: S 10 mph , 17 km/h
Temperature: 9°C
Wind Chill: 7°C
Dew Point: 5°C
Humidity: 76%
Barometer: 1009 hPa
Clouds: Clear
Visibility: 6 miles , 10 km
2021/05/11 19:50 EGPD 111950Z AUTO 17009KT 9999 NCD 09/05 Q1009
 
EGPF - Glasgow Airport, United Kingdom
Distance from station: SW 111km
Updated: 11/05/2021 20:50
Clear
Clear
 Wind from WNW
Wind: WNW 5 mph , 7 km/h
Temperature: 12°C
Dew Point: 7°C
Humidity: 72%
Barometer: 1006 hPa
Clouds: Clear
Visibility: 6 miles , 10 km
2021/05/11 19:50 EGPF 111950Z AUTO 30004KT 9999 NCD 12/07 Q1006
EGPE - Inverness/Dalcro, United Kingdom
Distance from station: NNW 124km
Updated: 11/05/2021 20:50
Few Clouds
Few Clouds
 Wind from NE
Wind: NE 5 mph , 7 km/h
Temperature: 9°C
Wind Chill: 8°C
Dew Point: 6°C
Humidity: 82%
Barometer: 1008 hPa
Clouds: Few Clouds
Visibility: 6 miles , 10 km
Cloud details: Few Clouds 640 m
2021/05/11 19:50 EGPE 111950Z 05004KT 9999 FEW021 09/06 Q1008
 
EGQK - Kinloss Raf, United Kingdom
Distance from station: NNW 128km
Updated: 11/05/2021 19:50
Mostly cloudy
Mostly cloudy
 Wind from E
Wind: E 10 mph , 17 km/h
Temperature: 12°C
Dew Point: 7°C
Humidity: 72%
Barometer: 1007 hPa
Clouds: Mostly cloudy
Visibility: 6 miles , 10 km
Cloud details: Mostly cloudy 2438 m
2021/05/11 18:50 EGQK 111850Z AUTO 08009KT 9999 BKN080/// 12/07 Q1007
EGQS - Lossiemouth Raf, United Kingdom
Distance from station: N 133km
Updated: 11/05/2021 20:50
Clear
Clear
 Wind from E
Wind: E 7 mph , 11 km/h
Temperature: 10°C
Wind Chill: 8°C
Dew Point: 7°C
Humidity: 82%
Barometer: 1008 hPa
Summary: Clear
Visibility: greater than 7 miles , 10 km
2021/05/11 19:50 EGQS 111950Z 09006KT CAVOK 10/07 Q1008 NOSIG RMK BLU BLU
 
EGPK - Prestwick(Civ/Na, United Kingdom
Distance from station: SW 148km
Updated: 11/05/2021 20:50
Light rain, Few clouds
Light rain, Few clouds
 Wind from varies
Wind: varies 2 mph , 4 km/h
Temperature: 11°C
Dew Point: 7°C
Humidity: 77%
Barometer: 1006 hPa
Summary: Light rain
Clouds: Few Clouds
Visibility: 6 miles , 10 km
Cloud details: Few Clouds 1158 m
2021/05/11 19:50 EGPK 111950Z VRB02KT 9999 -RA FEW038 11/07 Q1006
EGQA - Tain Range (saws, United Kingdom
Distance from station: NNW 154km
Updated: 11/05/2021 15:50
NOT Current
Partly cloudy
Partly cloudy
 Wind from WNW
Wind: WNW 13 mph , 20 km/h
Clouds: Partly cloudy
Visibility: 6 miles , 10 km
Cloud details: Few Clouds 549 m
Partly cloudy 1158 m
2021/05/11 14:50 EGQA 111450Z 30011KT 9999 FEW018 SCT038 13/// Q1006 RMK BLU
 
EGQM - Boulmer, United Kingdom
Distance from station: SE 154km
Updated: 11/05/2021 20:50
Light rain, Mostly cloudy
Light rain, Mostly cloudy
 Wind from SE
Wind: SE 5 mph , 7 km/h
Temperature: 9°C
Wind Chill: 8°C
Dew Point: 8°C
Humidity: 94%
Barometer: 1007 hPa
Summary: Light rain
Clouds: Mostly cloudy
Visibility: 4 miles , 7 km
Cloud details: Mostly cloudy 1280 m
2021/05/11 19:50 EGQM 111950Z AUTO 14004KT 7000 -RA BKN042/// 09/08 Q1007